createdAt,value
2024-01-11T00:00:11.826Z,61.47
2024-01-11T00:01:13.816Z,56.67
2024-01-11T00:02:16.811Z,52.38
2024-01-11T00:03:19.585Z,52.67
2024-01-11T00:04:22.567Z,51.45
2024-01-11T00:05:24.698Z,53.75
2024-01-11T00:06:26.730Z,59.15
2024-01-11T00:07:29.682Z,53.15
2024-01-11T00:08:31.801Z,57.38
2024-01-11T00:09:34.703Z,55.05
2024-01-11T00:10:36.846Z,56.30
2024-01-11T00:11:40.220Z,56.15
2024-01-11T00:12:43.227Z,60.65
2024-01-11T00:13:45.187Z,56.67
2024-01-11T00:14:48.097Z,63.83
2024-01-11T00:15:50.013Z,66.68
2024-01-11T00:16:53.475Z,62.40
2024-01-11T00:17:56.005Z,60.35
2024-01-11T00:18:59.040Z,58.88
2024-01-11T00:20:01.682Z,61.72
2024-01-11T00:21:04.788Z,64.68
2024-01-11T00:22:07.192Z,61.40
2024-01-11T00:23:10.119Z,67.93
2024-01-11T00:24:12.076Z,65.60
2024-01-11T00:25:14.949Z,65.03
2024-01-11T00:26:17.086Z,64.55
2024-01-11T00:27:21.725Z,65.07
2024-01-11T00:28:23.591Z,67.18
2024-01-11T00:29:26.533Z,67.15
2024-01-11T00:30:28.495Z,61.38
2024-01-11T00:31:30.386Z,62.50
2024-01-11T00:32:33.336Z,59.45
2024-01-11T00:33:35.323Z,61.45
2024-01-11T00:34:38.278Z,62.47
2024-01-11T00:35:40.364Z,60.42
2024-01-11T00:36:43.268Z,57.75
2024-01-11T00:37:45.195Z,62.30
2024-01-11T00:38:48.078Z,60.42
2024-01-11T00:39:49.947Z,61.22
2024-01-11T00:40:52.869Z,63.90
2024-01-11T00:41:54.832Z,64.60
2024-01-11T00:42:59.030Z,66.35
2024-01-11T00:44:00.923Z,59.13
2024-01-11T00:45:03.819Z,60.33
2024-01-11T00:46:05.824Z,60.63
2024-01-11T00:47:09.032Z,59.15
2024-01-11T00:48:11.195Z,65.75
2024-01-11T00:49:13.237Z,63.88
2024-01-11T00:50:16.325Z,64.13
2024-01-11T00:51:18.272Z,60.28
2024-01-11T00:52:21.386Z,58.58
2024-01-11T00:53:23.278Z,58.50
2024-01-11T00:54:26.298Z,62.67
2024-01-11T00:55:28.168Z,58.35
2024-01-11T00:56:31.083Z,65.20
2024-01-11T00:57:33.079Z,56.45
2024-01-11T00:58:37.291Z,57.70
2024-01-11T00:59:41.035Z,55.08
2024-01-11T01:00:43.987Z,57.38
2024-01-11T01:01:48.756Z,54.53
2024-01-11T01:02:52.000Z,58.65
2024-01-11T01:03:53.971Z,63.10
2024-01-11T01:04:56.852Z,62.63
2024-01-11T01:05:58.882Z,60.58
2024-01-11T01:07:01.808Z,71.90
2024-01-11T01:08:04.212Z,70.68
2024-01-11T01:09:07.164Z,67.32
2024-01-11T01:10:09.588Z,65.15
2024-01-11T01:11:12.497Z,62.35
2024-01-11T01:12:14.419Z,62.05
2024-01-11T01:13:17.362Z,64.85
2024-01-11T01:14:20.618Z,75.80
2024-01-11T01:15:23.541Z,60.13
2024-01-11T01:16:25.501Z,57.58
2024-01-11T01:17:28.536Z,59.20
2024-01-11T01:18:30.574Z,61.47
2024-01-11T01:19:34.423Z,59.40
2024-01-11T01:20:36.407Z,62.92
2024-01-11T01:21:39.305Z,62.70
2024-01-11T01:22:41.233Z,63.03
2024-01-11T01:23:44.162Z,71.25
2024-01-11T01:24:46.060Z,61.50
2024-01-11T01:25:49.002Z,69.40
2024-01-11T01:26:50.911Z,63.95
2024-01-11T01:27:52.809Z,67.15
2024-01-11T01:28:55.774Z,68.53
2024-01-11T01:29:59.023Z,75.85
2024-01-11T01:31:02.011Z,77.80
2024-01-11T01:32:04.662Z,72.10
2024-01-11T01:33:07.791Z,77.82
2024-01-11T01:34:09.998Z,79.28
2024-01-11T01:35:12.966Z,78.05
2024-01-11T01:36:14.928Z,77.07
2024-01-11T01:37:17.826Z,80.10
2024-01-11T01:38:19.797Z,75.63
2024-01-11T01:39:22.702Z,79.93
2024-01-11T01:40:24.623Z,77.50
2024-01-11T01:41:27.522Z,77.88
2024-01-11T01:42:29.416Z,74.85
2024-01-11T01:43:32.283Z,76.97
2024-01-11T01:44:34.441Z,73.28
2024-01-11T01:45:38.743Z,81.63
2024-01-11T01:46:40.865Z,80.63
2024-01-11T01:47:44.714Z,79.68
2024-01-11T01:48:46.831Z,66.57
2024-01-11T01:49:51.176Z,65.57
2024-01-11T01:50:53.332Z,65.93
2024-01-11T01:51:56.882Z,73.80
2024-01-11T01:52:59.082Z,71.60
2024-01-11T01:54:02.477Z,74.00
2024-01-11T01:55:05.707Z,73.60
2024-01-11T01:56:09.323Z,65.10
2024-01-11T01:57:11.735Z,64.80
2024-01-11T01:58:15.049Z,64.95
2024-01-11T01:59:17.184Z,65.22
2024-01-11T02:00:20.341Z,65.75
2024-01-11T02:01:24.437Z,69.10
2024-01-11T02:02:27.841Z,71.93
2024-01-11T02:03:31.107Z,70.07
2024-01-11T02:04:34.223Z,66.72
2024-01-11T02:05:36.440Z,69.40
2024-01-11T02:06:39.906Z,68.50
2024-01-11T02:07:42.070Z,65.38
2024-01-11T02:08:45.139Z,73.05
2024-01-11T02:09:47.915Z,69.55
2024-01-11T02:10:50.915Z,69.65
2024-01-11T02:11:53.481Z,71.95
2024-01-11T02:12:56.353Z,66.07
2024-01-11T02:13:58.680Z,67.70
2024-01-11T02:15:02.257Z,67.35
2024-01-11T02:16:05.092Z,68.13
2024-01-11T02:17:09.927Z,62.85
2024-01-11T02:18:11.935Z,59.45
2024-01-11T02:19:15.968Z,65.60
2024-01-11T02:20:17.996Z,71.85
2024-01-11T02:21:20.932Z,67.57
2024-01-11T02:22:26.022Z,69.05
2024-01-11T02:23:29.281Z,67.82
2024-01-11T02:24:32.672Z,71.03
2024-01-11T02:25:38.558Z,73.15
2024-01-11T02:26:58.837Z,70.85
2024-01-11T02:28:01.724Z,74.05
2024-01-11T02:29:03.741Z,72.22
2024-01-11T02:30:07.772Z,63.67
2024-01-11T02:31:09.677Z,59.40
2024-01-11T02:32:13.233Z,64.72
2024-01-11T02:33:17.413Z,65.82
2024-01-11T02:34:20.719Z,64.43
2024-01-11T02:35:22.926Z,67.50
2024-01-11T02:36:27.426Z,73.85
2024-01-11T02:37:29.353Z,67.95
2024-01-11T02:38:32.337Z,70.13
2024-01-11T02:39:35.690Z,65.57
2024-01-11T02:40:39.856Z,62.72
2024-01-11T02:41:42.255Z,66.60
2024-01-11T02:42:45.148Z,65.70
2024-01-11T02:43:48.383Z,72.07
2024-01-11T02:44:51.296Z,75.47
2024-01-11T02:45:55.642Z,76.93
2024-01-11T02:46:57.556Z,73.40
2024-01-11T02:48:00.936Z,81.88
2024-01-11T02:49:03.083Z,73.07
2024-01-11T02:50:06.270Z,66.97
2024-01-11T02:51:08.225Z,69.47
2024-01-11T02:52:11.092Z,67.82
2024-01-11T02:53:13.182Z,75.97
2024-01-11T02:54:16.146Z,79.88
2024-01-11T02:55:19.437Z,80.57
2024-01-11T02:56:22.341Z,80.93
2024-01-11T02:57:24.303Z,80.72
2024-01-11T02:58:27.220Z,77.70
2024-01-11T02:59:29.597Z,79.10
2024-01-11T03:00:32.639Z,76.80
2024-01-11T03:01:34.594Z,81.70
2024-01-11T03:02:39.780Z,72.07
2024-01-11T03:03:41.927Z,78.22
2024-01-11T03:04:44.818Z,74.80
2024-01-11T03:05:46.864Z,75.00
2024-01-11T03:06:49.917Z,72.70
2024-01-11T03:07:52.059Z,74.55
2024-01-11T03:08:54.952Z,75.75
2024-01-11T03:09:57.225Z,77.85
2024-01-11T03:11:01.461Z,75.03
2024-01-11T03:12:03.907Z,75.45
2024-01-11T03:13:07.552Z,70.53
2024-01-11T03:14:09.522Z,64.60
2024-01-11T03:15:12.431Z,64.90
2024-01-11T03:16:14.651Z,67.00
2024-01-11T03:17:17.543Z,67.57
2024-01-11T03:18:19.592Z,72.10
2024-01-11T03:19:21.902Z,71.97
2024-01-11T03:20:26.005Z,78.53
2024-01-11T03:21:27.994Z,75.78
2024-01-11T03:22:30.874Z,77.15
2024-01-11T03:23:32.853Z,71.00
2024-01-11T03:24:38.746Z,68.13
2024-01-11T03:25:41.700Z,67.90
2024-01-11T03:26:45.037Z,67.03
2024-01-11T03:27:48.078Z,67.47
2024-01-11T03:28:50.381Z,70.30
2024-01-11T03:29:53.282Z,70.75
2024-01-11T03:30:55.569Z,75.63
2024-01-11T03:31:58.573Z,70.10
2024-01-11T03:33:00.753Z,69.63
2024-01-11T03:34:03.833Z,66.82
2024-01-11T03:35:06.972Z,61.85
2024-01-11T03:36:10.928Z,70.05
2024-01-11T03:37:12.873Z,70.38
2024-01-11T03:38:15.867Z,73.10
2024-01-11T03:39:17.785Z,69.93
2024-01-11T03:40:20.820Z,65.72
2024-01-11T03:41:22.815Z,66.03
2024-01-11T03:42:27.040Z,61.35
2024-01-11T03:43:28.975Z,64.13
2024-01-11T03:44:33.220Z,65.90
2024-01-11T03:45:35.148Z,67.13
2024-01-11T03:46:37.996Z,68.35
2024-01-11T03:47:39.946Z,67.82
2024-01-11T03:48:42.968Z,72.63
2024-01-11T03:49:44.888Z,71.18
2024-01-11T03:50:47.866Z,71.35
2024-01-11T03:51:49.763Z,71.55
2024-01-11T03:52:52.591Z,63.92
2024-01-11T03:53:54.726Z,68.70
2024-01-11T03:54:57.638Z,70.22
2024-01-11T03:56:01.167Z,69.88
2024-01-11T03:57:04.301Z,59.83
2024-01-11T03:58:07.555Z,61.35
2024-01-11T03:59:10.420Z,64.43
2024-01-11T04:00:13.364Z,64.35
2024-01-11T04:01:16.358Z,63.65
2024-01-11T04:02:18.421Z,63.15
2024-01-11T04:03:21.378Z,60.20
2024-01-11T04:04:23.350Z,65.85
2024-01-11T04:05:26.278Z,64.80
2024-01-11T04:06:28.332Z,63.67
2024-01-11T04:07:31.212Z,64.82
2024-01-11T04:08:33.162Z,61.97
2024-01-11T04:09:35.217Z,57.97
2024-01-11T04:10:38.321Z,60.55
2024-01-11T04:11:40.315Z,63.95
2024-01-11T04:12:43.249Z,60.85
2024-01-11T04:13:46.564Z,61.63
2024-01-11T04:14:49.456Z,61.38
2024-01-11T04:15:51.363Z,60.90
2024-01-11T04:16:54.296Z,60.90
2024-01-11T04:17:56.402Z,60.03
2024-01-11T04:18:58.450Z,62.38
2024-01-11T04:20:01.378Z,62.13
2024-01-11T04:21:03.487Z,60.80
2024-01-11T04:22:05.577Z,64.72
2024-01-11T04:23:08.453Z,59.95
2024-01-11T04:24:10.536Z,64.55
2024-01-11T04:25:13.422Z,66.70
2024-01-11T04:26:15.444Z,60.03
2024-01-11T04:27:18.415Z,56.72
2024-01-11T04:28:20.497Z,59.88
2024-01-11T04:29:23.766Z,55.97
2024-01-11T04:30:26.657Z,59.28
2024-01-11T04:31:28.736Z,59.28
2024-01-11T04:32:31.728Z,59.33
2024-01-11T04:33:33.713Z,60.28
2024-01-11T04:34:36.744Z,65.25
2024-01-11T04:35:38.852Z,63.80
2024-01-11T04:36:41.849Z,62.67
2024-01-11T04:37:43.772Z,63.85
2024-01-11T04:38:46.831Z,63.65
2024-01-11T04:39:48.940Z,64.80
2024-01-11T04:40:51.883Z,62.05
2024-01-11T04:41:53.763Z,64.25
2024-01-11T04:42:56.629Z,62.35
2024-01-11T04:43:58.542Z,64.97
2024-01-11T04:45:02.792Z,61.45
2024-01-11T04:46:05.082Z,61.72
2024-01-11T04:47:09.514Z,59.15
2024-01-11T04:48:11.637Z,63.13
2024-01-11T04:49:14.684Z,60.67
2024-01-11T04:50:20.112Z,62.67
2024-01-11T04:51:25.033Z,59.50
2024-01-11T04:52:26.886Z,58.60
2024-01-11T04:53:29.912Z,60.78
2024-01-11T04:54:31.829Z,62.28
2024-01-11T04:55:34.690Z,60.22
2024-01-11T04:56:36.630Z,61.17
2024-01-11T04:57:39.525Z,60.30
2024-01-11T04:58:42.867Z,59.72
2024-01-11T04:59:45.806Z,61.58
2024-01-11T05:00:49.871Z,63.30
2024-01-11T05:01:52.740Z,62.72
2024-01-11T05:02:54.742Z,63.85
2024-01-11T05:03:57.675Z,60.00
2024-01-11T05:04:59.674Z,59.55
2024-01-11T05:06:02.794Z,59.97
2024-01-11T05:07:05.075Z,60.75
2024-01-11T05:08:07.997Z,59.67
2024-01-11T05:09:09.966Z,56.40
2024-01-11T05:10:12.871Z,58.08
2024-01-11T05:11:18.517Z,62.05
2024-01-11T05:12:21.498Z,56.28
2024-01-11T05:13:23.423Z,56.28
2024-01-11T05:14:26.389Z,56.10
2024-01-11T05:15:28.334Z,59.63
2024-01-11T05:16:32.552Z,60.45
2024-01-11T05:17:34.632Z,60.80
2024-01-11T05:18:37.667Z,60.53
2024-01-11T05:19:39.825Z,58.92
2024-01-11T05:20:43.116Z,56.50
2024-01-11T05:21:45.219Z,60.22
2024-01-11T05:22:47.100Z,59.58
2024-01-11T05:23:50.437Z,60.42
2024-01-11T05:24:52.485Z,59.08
2024-01-11T05:25:55.396Z,65.55
2024-01-11T05:26:57.259Z,65.93
2024-01-11T05:28:00.129Z,64.53
2024-01-11T05:29:02.084Z,61.67
2024-01-11T05:30:04.653Z,61.65
2024-01-11T05:31:08.271Z,65.85
2024-01-11T05:32:11.820Z,61.33
2024-01-11T05:33:14.961Z,56.65
2024-01-11T05:34:17.073Z,57.42
2024-01-11T05:35:20.170Z,60.58
2024-01-11T05:36:22.846Z,61.42
2024-01-11T05:37:25.796Z,57.45
2024-01-11T05:38:27.709Z,61.85
2024-01-11T05:39:30.588Z,65.13
2024-01-11T05:40:32.508Z,61.53
2024-01-11T05:41:35.433Z,67.22
2024-01-11T05:42:38.407Z,65.80
2024-01-11T05:43:42.251Z,62.20
2024-01-11T05:44:45.020Z,60.78
2024-01-11T05:45:48.558Z,66.70
2024-01-11T05:46:51.544Z,65.70
2024-01-11T05:47:56.506Z,61.75
2024-01-11T05:48:58.553Z,59.85
2024-01-11T05:50:01.626Z,59.92
2024-01-11T05:51:03.741Z,62.60
2024-01-11T05:52:07.038Z,61.22
2024-01-11T05:53:09.005Z,76.07
2024-01-11T05:54:11.904Z,80.55
2024-01-11T05:55:14.014Z,82.78
2024-01-11T05:56:17.013Z,90.55
2024-01-11T05:57:18.939Z,90.00
2024-01-11T05:58:22.099Z,87.25
2024-01-11T05:59:24.075Z,76.55
2024-01-11T06:00:27.170Z,76.72
2024-01-11T06:01:29.205Z,79.35
2024-01-11T06:02:32.741Z,91.60
2024-01-11T06:03:36.385Z,75.40
2024-01-11T06:04:39.483Z,88.35
2024-01-11T06:05:41.546Z,70.45
2024-01-11T06:06:44.527Z,67.35
2024-01-11T06:07:46.403Z,69.47
2024-01-11T06:08:49.785Z,70.68
2024-01-11T06:09:51.713Z,83.40
2024-01-11T06:10:53.645Z,89.90
2024-01-11T06:11:56.575Z,97.40
2024-01-11T06:12:58.460Z,99.70
2024-01-11T06:14:01.681Z,80.65
2024-01-11T06:15:04.301Z,78.60
2024-01-11T06:16:06.482Z,81.05
2024-01-11T06:17:12.145Z,83.97
2024-01-11T06:18:14.245Z,79.80
2024-01-11T06:19:18.681Z,79.07
2024-01-11T06:20:20.990Z,80.72
2024-01-11T06:21:23.933Z,77.35
2024-01-11T06:22:25.882Z,80.45
2024-01-11T06:23:29.121Z,76.40
2024-01-11T06:24:31.087Z,78.85
2024-01-11T06:25:32.955Z,78.90
2024-01-11T06:26:35.876Z,83.18
2024-01-11T06:27:38.008Z,72.50
2024-01-11T06:28:40.918Z,75.00
2024-01-11T06:29:42.942Z,77.22
2024-01-11T06:30:46.021Z,82.43
2024-01-11T06:31:47.985Z,79.72
2024-01-11T06:32:50.988Z,76.10
2024-01-11T06:33:52.998Z,76.45
2024-01-11T06:34:57.292Z,78.65
2024-01-11T06:35:59.778Z,78.40
2024-01-11T06:37:03.838Z,71.53
2024-01-11T06:38:05.779Z,71.80
2024-01-11T06:39:09.683Z,62.83
2024-01-11T06:40:12.209Z,56.53
2024-01-11T06:41:15.899Z,66.32
2024-01-11T06:42:19.794Z,62.95
2024-01-11T06:43:22.868Z,62.70
2024-01-11T06:44:24.769Z,64.65
2024-01-11T06:45:27.913Z,57.30
2024-01-11T06:46:29.883Z,63.63
2024-01-11T06:47:32.942Z,68.03
2024-01-11T06:48:35.454Z,65.85
2024-01-11T06:49:40.615Z,65.75
2024-01-11T06:50:44.742Z,63.03
2024-01-11T06:51:47.649Z,58.15
2024-01-11T06:52:49.624Z,55.10
2024-01-11T06:53:52.585Z,62.90
2024-01-11T06:54:54.496Z,57.13
2024-01-11T06:55:57.416Z,59.97
2024-01-11T06:56:59.598Z,57.60
2024-01-11T06:58:03.340Z,61.80
2024-01-11T06:59:05.504Z,59.70
2024-01-11T07:00:09.754Z,61.63
2024-01-11T07:01:12.077Z,60.58
2024-01-11T07:02:14.981Z,59.10
2024-01-11T07:03:16.973Z,58.70
2024-01-11T07:04:18.947Z,60.47
2024-01-11T07:05:21.993Z,68.53
2024-01-11T07:06:25.392Z,82.07
2024-01-11T07:07:28.298Z,61.40
2024-01-11T07:08:30.237Z,66.07
2024-01-11T07:09:33.157Z,64.40
2024-01-11T07:10:35.032Z,65.63
2024-01-11T07:11:36.967Z,66.07
2024-01-11T07:12:41.740Z,64.35
2024-01-11T07:13:43.840Z,66.53
2024-01-11T07:14:46.839Z,64.65
2024-01-11T07:15:49.188Z,67.15
2024-01-11T07:16:52.057Z,63.65
2024-01-11T07:17:54.676Z,64.47
2024-01-11T07:18:58.192Z,64.20
2024-01-11T07:20:00.450Z,61.85
2024-01-11T07:21:03.402Z,60.75
2024-01-11T07:22:06.646Z,65.50
2024-01-11T07:23:09.667Z,64.70
2024-01-11T07:24:11.657Z,67.40
2024-01-11T07:25:15.389Z,69.47
2024-01-11T07:26:17.342Z,64.55
2024-01-11T07:27:20.373Z,65.50
2024-01-11T07:28:26.374Z,68.10
2024-01-11T07:29:29.283Z,68.75
2024-01-11T07:30:31.314Z,98.72
2024-01-11T07:31:34.212Z,118.90
2024-01-11T07:32:36.279Z,135.82
2024-01-11T07:33:39.415Z,102.55
2024-01-11T07:34:41.427Z,104.00
2024-01-11T07:35:44.390Z,120.20
2024-01-11T07:36:46.374Z,112.97
2024-01-11T07:37:51.084Z,107.68
2024-01-11T07:38:52.993Z,85.63
2024-01-11T07:39:55.867Z,81.38
2024-01-11T07:40:57.821Z,86.40
2024-01-11T07:42:00.729Z,89.20
2024-01-11T07:43:02.684Z,81.82
2024-01-11T07:44:05.881Z,86.60
2024-01-11T07:45:10.459Z,87.05
2024-01-11T07:46:12.408Z,87.63
2024-01-11T07:47:15.284Z,92.68
2024-01-11T07:48:17.358Z,87.30
2024-01-11T07:49:20.356Z,89.78
2024-01-11T07:50:22.533Z,86.05
2024-01-11T07:51:25.431Z,82.20
2024-01-11T07:52:27.330Z,87.38
2024-01-11T07:53:32.481Z,77.50
2024-01-11T07:54:34.451Z,66.22
2024-01-11T07:55:38.658Z,66.28
2024-01-11T07:56:41.678Z,58.50
2024-01-11T07:57:44.625Z,55.25
2024-01-11T07:58:48.942Z,57.88
2024-01-11T07:59:52.641Z,54.15
2024-01-11T08:00:55.455Z,53.78
2024-01-11T08:01:58.984Z,53.80
2024-01-11T08:03:01.101Z,52.55
2024-01-11T08:04:04.949Z,52.88
2024-01-11T08:05:07.977Z,53.80
2024-01-11T08:06:10.969Z,51.30
2024-01-11T08:07:13.090Z,52.40
2024-01-11T08:08:16.021Z,50.83
2024-01-11T08:09:19.343Z,51.25
2024-01-11T08:10:22.215Z,49.30
2024-01-11T08:11:24.108Z,49.50
2024-01-11T08:12:26.058Z,49.97
2024-01-11T08:13:29.548Z,47.83
2024-01-11T08:14:31.501Z,47.53
2024-01-11T08:15:35.344Z,48.53
2024-01-11T08:16:37.269Z,47.20
2024-01-11T08:17:41.974Z,46.33
2024-01-11T08:18:45.051Z,46.67
2024-01-11T08:19:47.995Z,46.17
2024-01-11T08:20:50.071Z,45.78
2024-01-11T08:21:53.019Z,48.13
2024-01-11T08:22:54.938Z,48.47
2024-01-11T08:24:01.487Z,47.10
2024-01-11T08:25:07.252Z,46.22
2024-01-11T08:26:10.128Z,45.40
2024-01-11T08:27:12.035Z,46.90
2024-01-11T08:28:14.963Z,45.92
2024-01-11T08:29:17.000Z,48.10
2024-01-11T08:30:20.493Z,45.60
2024-01-11T08:31:22.534Z,47.15
2024-01-11T08:32:31.307Z,45.45
2024-01-11T08:33:35.697Z,46.38
2024-01-11T08:34:37.889Z,46.25
2024-01-11T08:35:42.083Z,45.55
2024-01-11T08:36:44.139Z,43.67
2024-01-11T08:37:47.021Z,44.60
2024-01-11T08:38:49.308Z,45.25
2024-01-11T08:39:52.650Z,46.88
2024-01-11T08:40:55.920Z,47.83
2024-01-11T08:41:58.884Z,44.83
2024-01-11T08:43:00.846Z,47.40
2024-01-11T08:44:04.069Z,46.00
2024-01-11T08:45:08.197Z,48.38
2024-01-11T08:46:11.133Z,47.00
2024-01-11T08:47:13.211Z,46.05
2024-01-11T08:48:16.959Z,52.95
2024-01-11T08:49:19.150Z,52.67
2024-01-11T08:50:24.278Z,54.53
2024-01-11T08:51:27.540Z,54.63
2024-01-11T08:52:29.789Z,56.40
2024-01-11T08:53:32.719Z,56.42
2024-01-11T08:54:35.217Z,52.08
2024-01-11T08:55:38.083Z,51.78
2024-01-11T08:56:42.582Z,49.67
2024-01-11T08:57:45.494Z,47.20
2024-01-11T08:58:47.837Z,49.78
2024-01-11T08:59:50.768Z,51.83
2024-01-11T09:00:52.792Z,49.35
2024-01-11T09:02:02.432Z,55.47
2024-01-11T09:03:15.101Z,54.10
2024-01-11T09:04:18.720Z,49.22
2024-01-11T09:05:22.497Z,48.30
2024-01-11T09:06:24.594Z,48.83
2024-01-11T09:07:27.542Z,46.30
2024-01-11T09:08:29.498Z,47.28
2024-01-11T09:09:36.677Z,51.15
2024-01-11T09:10:43.154Z,48.92
2024-01-11T09:11:47.530Z,55.38
2024-01-11T09:12:49.433Z,48.25
2024-01-11T09:13:52.337Z,52.08
2024-01-11T09:14:54.596Z,48.53
2024-01-11T09:15:57.887Z,49.38
2024-01-11T09:16:59.791Z,50.78
2024-01-11T09:18:02.939Z,47.65
2024-01-11T09:19:05.037Z,46.80
2024-01-11T09:20:08.690Z,42.58
2024-01-11T09:21:10.790Z,44.20
2024-01-11T09:22:13.712Z,41.03
2024-01-11T09:23:15.694Z,40.13
2024-01-11T09:24:18.935Z,39.38
2024-01-11T09:25:20.827Z,40.28
2024-01-11T09:26:24.097Z,39.13
2024-01-11T09:27:27.360Z,38.47
2024-01-11T09:28:30.217Z,37.20
2024-01-11T09:29:32.174Z,37.05
2024-01-11T09:30:35.178Z,36.88
2024-01-11T09:31:37.123Z,35.13
2024-01-11T09:32:40.251Z,34.50
2024-01-11T09:33:43.890Z,38.38
2024-01-11T09:34:47.121Z,36.22
2024-01-11T09:35:49.155Z,33.60
2024-01-11T09:36:52.888Z,39.30
2024-01-11T09:37:54.777Z,36.85
2024-01-11T09:38:58.193Z,33.13
2024-01-11T09:40:01.860Z,33.33
2024-01-11T09:41:09.435Z,34.33
2024-01-11T09:42:13.962Z,32.45
2024-01-11T09:43:17.832Z,34.13
2024-01-11T09:44:21.570Z,32.67
2024-01-11T09:45:23.494Z,32.67
2024-01-11T09:46:26.930Z,32.83
2024-01-11T09:47:29.688Z,31.65
2024-01-11T09:48:33.471Z,32.38
2024-01-11T09:49:39.098Z,32.25
2024-01-11T09:50:42.551Z,32.42
2024-01-11T09:51:46.184Z,30.52
2024-01-11T09:52:50.075Z,32.53
2024-01-11T09:53:52.679Z,35.15
2024-01-11T09:54:56.154Z,30.48
2024-01-11T09:55:58.306Z,32.33
2024-01-11T09:57:00.773Z,30.38
2024-01-11T09:58:04.112Z,33.10
2024-01-11T09:59:08.725Z,29.30
2024-01-11T10:00:12.609Z,30.98
2024-01-11T10:01:15.094Z,28.85
2024-01-11T10:02:18.279Z,26.55
2024-01-11T10:03:20.736Z,25.92
2024-01-11T10:04:22.967Z,22.98
2024-01-11T10:05:26.130Z,20.27
2024-01-11T10:06:28.695Z,21.35
2024-01-11T10:07:32.802Z,21.08
2024-01-11T10:08:35.049Z,18.02
2024-01-11T10:09:37.991Z,20.65
2024-01-11T10:10:41.025Z,19.92
2024-01-11T10:11:43.650Z,20.02
2024-01-11T10:12:46.625Z,18.70
2024-01-11T10:13:48.646Z,18.63
2024-01-11T10:14:53.274Z,17.65
2024-01-11T10:16:06.264Z,19.17
2024-01-11T10:17:11.155Z,18.65
2024-01-11T10:18:14.609Z,17.92
2024-01-11T10:19:18.382Z,20.70
2024-01-11T10:20:25.016Z,20.08
2024-01-11T10:21:29.974Z,18.35
2024-01-11T10:22:31.932Z,18.08
2024-01-11T10:23:35.857Z,18.13
2024-01-11T10:24:37.994Z,18.80
2024-01-11T10:25:41.398Z,17.77
2024-01-11T10:26:44.740Z,16.88
2024-01-11T10:27:47.007Z,17.35
2024-01-11T10:28:50.064Z,17.38
2024-01-11T10:29:53.902Z,20.48
2024-01-11T10:30:56.645Z,20.98
2024-01-11T10:31:59.656Z,24.15
2024-01-11T10:33:02.124Z,21.08
2024-01-11T10:34:06.137Z,21.38
2024-01-11T10:35:08.892Z,32.13
2024-01-11T10:36:13.800Z,21.67
2024-01-11T10:37:15.981Z,40.90
2024-01-11T10:38:19.054Z,19.88
2024-01-11T10:39:26.162Z,22.13
2024-01-11T10:40:28.246Z,20.45
2024-01-11T10:41:31.882Z,23.25
2024-01-11T10:42:35.157Z,22.88
2024-01-11T10:43:39.372Z,28.00
2024-01-11T10:44:44.844Z,21.58
2024-01-11T10:45:54.877Z,20.70
2024-01-11T10:46:58.086Z,21.77
2024-01-11T10:48:05.710Z,20.13
2024-01-11T10:49:09.439Z,21.13
2024-01-11T10:50:12.682Z,21.13
2024-01-11T10:51:18.676Z,19.27
2024-01-11T10:52:24.958Z,24.50
2024-01-11T10:53:33.633Z,19.15
2024-01-11T10:54:36.845Z,19.33
2024-01-11T10:55:39.779Z,19.70
2024-01-11T10:56:44.967Z,19.02
2024-01-11T10:57:49.334Z,18.27
2024-01-11T10:58:53.390Z,20.02
2024-01-11T10:59:56.050Z,20.92
2024-01-11T11:01:00.592Z,19.88
2024-01-11T11:02:13.218Z,21.80
2024-01-11T11:03:16.589Z,19.90
2024-01-11T11:04:21.779Z,23.08
2024-01-11T11:05:25.732Z,20.85
2024-01-11T11:06:30.307Z,21.50
2024-01-11T11:07:33.359Z,23.60
2024-01-11T11:08:38.092Z,21.77
2024-01-11T11:09:44.904Z,20.65
2024-01-11T11:10:49.653Z,22.17
2024-01-11T11:11:52.045Z,20.98
2024-01-11T11:12:58.422Z,21.60
2024-01-11T11:14:02.222Z,21.05
2024-01-11T11:15:05.876Z,21.45
2024-01-11T11:16:09.391Z,21.63
2024-01-11T11:17:12.341Z,22.75
2024-01-11T11:18:14.653Z,25.42
2024-01-11T11:19:17.693Z,21.85
2024-01-11T11:20:19.888Z,23.27
2024-01-11T11:21:23.885Z,23.75
2024-01-11T11:22:28.176Z,31.45
2024-01-11T11:23:31.137Z,26.02
2024-01-11T11:24:35.089Z,24.65
2024-01-11T11:25:38.138Z,24.23
2024-01-11T11:26:40.093Z,22.25
2024-01-11T11:27:42.979Z,22.48
2024-01-11T11:28:45.150Z,21.75
2024-01-11T11:29:49.285Z,21.98
2024-01-11T11:30:53.254Z,21.30
2024-01-11T11:31:58.710Z,21.42
2024-01-11T11:33:09.503Z,23.10
2024-01-11T11:34:13.665Z,23.35
2024-01-11T11:35:15.684Z,20.42
2024-01-11T11:36:19.970Z,20.05
2024-01-11T11:37:24.349Z,20.50
2024-01-11T11:38:28.721Z,20.77
2024-01-11T11:39:30.700Z,19.83
2024-01-11T11:40:40.337Z,21.48
2024-01-11T11:41:43.785Z,25.05
2024-01-11T11:42:48.136Z,20.52
2024-01-11T11:43:50.105Z,21.15
2024-01-11T11:44:53.746Z,19.70
2024-01-11T11:45:55.913Z,21.00
2024-01-11T11:47:20.377Z,25.67
2024-01-11T11:48:52.419Z,20.38
2024-01-11T11:50:00.545Z,19.85
2024-01-11T11:51:03.280Z,20.38
2024-01-11T11:52:06.761Z,20.10
2024-01-11T11:53:11.647Z,23.52
2024-01-11T11:54:16.125Z,33.38
2024-01-11T11:55:18.410Z,22.90
2024-01-11T11:56:21.635Z,19.48
2024-01-11T11:57:25.263Z,19.45
2024-01-11T11:58:27.219Z,20.08
2024-01-11T11:59:30.864Z,18.98
2024-01-11T12:00:34.974Z,19.48
2024-01-11T12:01:37.921Z,19.48
2024-01-11T12:02:41.902Z,20.25
2024-01-11T12:03:50.012Z,21.33
2024-01-11T12:04:52.099Z,19.88
2024-01-11T12:05:55.712Z,19.52
2024-01-11T12:06:57.928Z,20.23
2024-01-11T12:07:59.913Z,22.15
2024-01-11T12:09:02.807Z,22.88
2024-01-11T12:10:05.922Z,29.50
2024-01-11T12:11:07.923Z,33.40
2024-01-11T12:12:15.723Z,21.27
2024-01-11T12:13:18.776Z,31.40
2024-01-11T12:14:22.605Z,20.13
2024-01-11T12:15:28.023Z,23.23
2024-01-11T12:16:31.050Z,23.83
2024-01-11T12:17:33.177Z,27.80
2024-01-11T12:18:37.609Z,27.33
2024-01-11T12:19:39.647Z,22.38
2024-01-11T12:20:42.628Z,22.20
2024-01-11T12:21:45.506Z,27.98
2024-01-11T12:22:49.029Z,24.65
2024-01-11T12:23:51.079Z,24.10
2024-01-11T12:24:54.473Z,21.95
2024-01-11T12:25:56.569Z,20.13
2024-01-11T12:26:59.957Z,20.73
2024-01-11T12:28:02.048Z,24.23
2024-01-11T12:29:05.262Z,23.48
2024-01-11T12:30:08.987Z,22.15
2024-01-11T12:31:13.057Z,23.75
2024-01-11T12:32:17.390Z,26.48
2024-01-11T12:33:20.784Z,29.33
2024-01-11T12:34:24.690Z,22.85
2024-01-11T12:35:28.889Z,22.55
2024-01-11T12:36:31.237Z,20.98
2024-01-11T12:37:34.156Z,20.90
2024-01-11T12:38:36.381Z,21.75
2024-01-11T12:39:40.188Z,25.52
2024-01-11T12:40:42.189Z,23.52
2024-01-11T12:41:45.259Z,21.25
2024-01-11T12:42:47.294Z,22.55
2024-01-11T12:43:50.193Z,22.75
2024-01-11T12:44:54.307Z,26.35
2024-01-11T12:45:58.423Z,24.08
2024-01-11T12:47:00.346Z,21.70
2024-01-11T12:48:05.071Z,21.83
2024-01-11T12:49:11.077Z,26.08
2024-01-11T12:50:15.487Z,24.25
2024-01-11T12:51:21.490Z,24.13
2024-01-11T12:52:28.492Z,23.95
2024-01-11T12:53:30.715Z,24.05
2024-01-11T12:54:34.619Z,24.83
2024-01-11T12:55:47.521Z,25.25
2024-01-11T12:56:55.757Z,25.08
2024-01-11T12:58:05.054Z,25.98
2024-01-11T12:59:09.702Z,24.55
2024-01-11T13:00:12.747Z,24.92
2024-01-11T13:01:16.395Z,25.88
2024-01-11T13:02:20.496Z,25.90
2024-01-11T13:03:24.251Z,24.85
2024-01-11T13:04:26.510Z,24.58
2024-01-11T13:05:30.974Z,27.60
2024-01-11T13:06:33.074Z,38.65
2024-01-11T13:07:36.122Z,29.30
2024-01-11T13:08:40.760Z,25.67
2024-01-11T13:09:43.666Z,27.67
2024-01-11T13:10:45.654Z,28.00
2024-01-11T13:11:48.566Z,27.13
2024-01-11T13:12:56.738Z,26.95
2024-01-11T13:14:07.682Z,24.85
2024-01-11T13:15:10.043Z,25.15
2024-01-11T13:16:15.682Z,26.23
2024-01-11T13:17:17.749Z,26.77
2024-01-11T13:18:20.663Z,27.45
2024-01-11T13:19:27.124Z,28.27
2024-01-11T13:20:32.437Z,25.45
2024-01-11T13:21:34.678Z,25.95
2024-01-11T13:22:37.554Z,27.42
2024-01-11T13:23:40.814Z,26.02
2024-01-11T13:24:43.721Z,27.90
2024-01-11T13:25:46.689Z,27.33
2024-01-11T13:26:50.062Z,26.98
2024-01-11T13:27:54.309Z,25.60
2024-01-11T13:28:57.221Z,26.15
2024-01-11T13:29:59.386Z,25.98
2024-01-11T13:31:03.488Z,27.33
2024-01-11T13:32:06.127Z,28.25
2024-01-11T13:33:10.061Z,27.42
2024-01-11T13:34:12.108Z,25.85